sensor_id;sensor_type;location;lat;lon;timestamp;temperature;humidity
43997;DHT22;34318;45.818;15.964;2022-07-12T00:02:02;23.10;62.10
43997;DHT22;34318;45.818;15.964;2022-07-12T00:04:29;23.10;62.60
43997;DHT22;34318;45.818;15.964;2022-07-12T00:06:56;23.10;62.20
43997;DHT22;34318;45.818;15.964;2022-07-12T00:09:23;23.10;62.10
43997;DHT22;34318;45.818;15.964;2022-07-12T00:11:50;23.10;62.10
43997;DHT22;34318;45.818;15.964;2022-07-12T00:14:17;23.10;62.00
43997;DHT22;34318;45.818;15.964;2022-07-12T00:16:43;23.00;62.30
43997;DHT22;34318;45.818;15.964;2022-07-12T00:19:10;23.00;62.40
43997;DHT22;34318;45.818;15.964;2022-07-12T00:21:37;23.00;62.10
43997;DHT22;34318;45.818;15.964;2022-07-12T00:24:05;23.10;62.20
43997;DHT22;34318;45.818;15.964;2022-07-12T00:26:32;23.10;61.90
43997;DHT22;34318;45.818;15.964;2022-07-12T00:28:59;23.10;62.00
43997;DHT22;34318;45.818;15.964;2022-07-12T00:31:26;23.00;62.00
43997;DHT22;34318;45.818;15.964;2022-07-12T00:33:53;23.00;61.70
43997;DHT22;34318;45.818;15.964;2022-07-12T00:36:20;23.00;61.90
43997;DHT22;34318;45.818;15.964;2022-07-12T00:38:47;23.00;61.80
43997;DHT22;34318;45.818;15.964;2022-07-12T00:41:14;23.00;61.80
43997;DHT22;34318;45.818;15.964;2022-07-12T00:43:41;23.00;61.50
43997;DHT22;34318;45.818;15.964;2022-07-12T00:46:09;23.00;61.60
43997;DHT22;34318;45.818;15.964;2022-07-12T00:48:37;22.90;61.80
43997;DHT22;34318;45.818;15.964;2022-07-12T00:51:04;22.90;61.60
43997;DHT22;34318;45.818;15.964;2022-07-12T00:53:31;23.00;61.20
43997;DHT22;34318;45.818;15.964;2022-07-12T00:55:58;23.00;61.30
43997;DHT22;34318;45.818;15.964;2022-07-12T00:58:25;22.90;61.30
43997;DHT22;34318;45.818;15.964;2022-07-12T01:00:55;22.90;61.20
43997;DHT22;34318;45.818;15.964;2022-07-12T01:03:23;23.00;61.00
43997;DHT22;34318;45.818;15.964;2022-07-12T01:05:51;23.00;60.90
43997;DHT22;34318;45.818;15.964;2022-07-12T01:08:18;22.90;61.00
43997;DHT22;34318;45.818;15.964;2022-07-12T01:10:45;22.90;61.20
43997;DHT22;34318;45.818;15.964;2022-07-12T01:13:14;22.90;62.00
43997;DHT22;34318;45.818;15.964;2022-07-12T01:15:41;22.90;61.10
43997;DHT22;34318;45.818;15.964;2022-07-12T01:18:09;22.90;61.20
43997;DHT22;34318;45.818;15.964;2022-07-12T01:20:36;22.90;61.00
43997;DHT22;34318;45.818;15.964;2022-07-12T01:23:04;22.80;61.00
43997;DHT22;34318;45.818;15.964;2022-07-12T01:25:34;22.90;61.10
43997;DHT22;34318;45.818;15.964;2022-07-12T01:28:01;22.90;61.30
43997;DHT22;34318;45.818;15.964;2022-07-12T01:30:29;22.90;61.00
43997;DHT22;34318;45.818;15.964;2022-07-12T01:32:57;22.90;61.00
43997;DHT22;34318;45.818;15.964;2022-07-12T01:35:24;22.90;61.10
43997;DHT22;34318;45.818;15.964;2022-07-12T01:37:51;22.90;61.10
43997;DHT22;34318;45.818;15.964;2022-07-12T01:40:18;22.90;60.90
43997;DHT22;34318;45.818;15.964;2022-07-12T01:42:48;22.90;61.00
43997;DHT22;34318;45.818;15.964;2022-07-12T01:45:15;22.80;61.20
43997;DHT22;34318;45.818;15.964;2022-07-12T01:47:42;22.90;61.30
43997;DHT22;34318;45.818;15.964;2022-07-12T01:50:10;22.80;61.40
43997;DHT22;34318;45.818;15.964;2022-07-12T01:52:39;22.80;61.30
43997;DHT22;34318;45.818;15.964;2022-07-12T01:55:08;22.80;61.20
43997;DHT22;34318;45.818;15.964;2022-07-12T01:57:35;22.90;61.30
43997;DHT22;34318;45.818;15.964;2022-07-12T02:00:04;22.90;61.10
43997;DHT22;34318;45.818;15.964;2022-07-12T02:02:35;22.90;61.40
43997;DHT22;34318;45.818;15.964;2022-07-12T02:05:03;22.80;61.20
43997;DHT22;34318;45.818;15.964;2022-07-12T02:07:31;22.80;61.50
43997;DHT22;34318;45.818;15.964;2022-07-12T02:09:59;22.80;61.30
43997;DHT22;34318;45.818;15.964;2022-07-12T02:12:25;22.80;61.20
43997;DHT22;34318;45.818;15.964;2022-07-12T02:14:52;22.80;61.20
43997;DHT22;34318;45.818;15.964;2022-07-12T02:17:19;22.80;61.30
43997;DHT22;34318;45.818;15.964;2022-07-12T02:19:46;22.80;61.60
43997;DHT22;34318;45.818;15.964;2022-07-12T02:22:13;22.80;61.60
43997;DHT22;34318;45.818;15.964;2022-07-12T02:24:40;22.80;61.60
43997;DHT22;34318;45.818;15.964;2022-07-12T02:27:08;22.80;61.50
43997;DHT22;34318;45.818;15.964;2022-07-12T02:29:35;22.80;61.60
43997;DHT22;34318;45.818;15.964;2022-07-12T02:32:02;22.80;61.50
43997;DHT22;34318;45.818;15.964;2022-07-12T02:34:29;22.80;61.60
43997;DHT22;34318;45.818;15.964;2022-07-12T02:36:57;22.80;61.60
43997;DHT22;34318;45.818;15.964;2022-07-12T02:39:24;22.70;61.70
43997;DHT22;34318;45.818;15.964;2022-07-12T02:41:51;22.70;61.70
43997;DHT22;34318;45.818;15.964;2022-07-12T02:44:18;22.80;61.40
43997;DHT22;34318;45.818;15.964;2022-07-12T02:46:44;22.80;61.30
43997;DHT22;34318;45.818;15.964;2022-07-12T02:49:11;22.80;61.60
43997;DHT22;34318;45.818;15.964;2022-07-12T02:51:38;22.70;61.60
43997;DHT22;34318;45.818;15.964;2022-07-12T02:54:05;22.70;61.80
43997;DHT22;34318;45.818;15.964;2022-07-12T02:56:32;22.70;61.80
43997;DHT22;34318;45.818;15.964;2022-07-12T02:58:59;22.70;61.80
43997;DHT22;34318;45.818;15.964;2022-07-12T03:01:25;22.70;62.00
43997;DHT22;34318;45.818;15.964;2022-07-12T03:03:52;22.70;62.00
43997;DHT22;34318;45.818;15.964;2022-07-12T03:06:19;22.70;62.40
43997;DHT22;34318;45.818;15.964;2022-07-12T03:08:49;22.70;62.10
43997;DHT22;34318;45.818;15.964;2022-07-12T03:11:17;22.60;62.20
43997;DHT22;34318;45.818;15.964;2022-07-12T03:13:43;22.70;62.10
43997;DHT22;34318;45.818;15.964;2022-07-12T03:16:11;22.70;61.90
43997;DHT22;34318;45.818;15.964;2022-07-12T03:18:40;22.70;61.90
43997;DHT22;34318;45.818;15.964;2022-07-12T03:21:07;22.70;62.10
43997;DHT22;34318;45.818;15.964;2022-07-12T03:23:37;22.60;62.10
43997;DHT22;34318;45.818;15.964;2022-07-12T03:26:06;22.60;62.20
43997;DHT22;34318;45.818;15.964;2022-07-12T03:28:33;22.70;62.00
43997;DHT22;34318;45.818;15.964;2022-07-12T03:31:00;22.70;62.00
43997;DHT22;34318;45.818;15.964;2022-07-12T03:33:28;22.60;62.10
43997;DHT22;34318;45.818;15.964;2022-07-12T03:35:59;22.60;62.20
43997;DHT22;34318;45.818;15.964;2022-07-12T03:38:26;22.70;62.30
43997;DHT22;34318;45.818;15.964;2022-07-12T03:40:53;22.70;62.30
43997;DHT22;34318;45.818;15.964;2022-07-12T03:43:20;22.60;62.40
43997;DHT22;34318;45.818;15.964;2022-07-12T03:45:47;22.60;62.40
43997;DHT22;34318;45.818;15.964;2022-07-12T03:48:14;22.60;62.40
43997;DHT22;34318;45.818;15.964;2022-07-12T03:50:41;22.60;62.50
43997;DHT22;34318;45.818;15.964;2022-07-12T03:53:08;22.60;62.40
43997;DHT22;34318;45.818;15.964;2022-07-12T03:55:35;22.70;62.10
43997;DHT22;34318;45.818;15.964;2022-07-12T03:58:02;22.70;62.20
43997;DHT22;34318;45.818;15.964;2022-07-12T04:00:29;22.70;62.10
43997;DHT22;34318;45.818;15.964;2022-07-12T04:02:56;22.60;62.20
43997;DHT22;34318;45.818;15.964;2022-07-12T04:05:23;22.60;62.50
43997;DHT22;34318;45.818;15.964;2022-07-12T04:07:53;22.60;62.50
43997;DHT22;34318;45.818;15.964;2022-07-12T04:10:21;22.60;62.60
43997;DHT22;34318;45.818;15.964;2022-07-12T04:12:48;22.60;62.70
43997;DHT22;34318;45.818;15.964;2022-07-12T04:15:16;22.60;62.30
43997;DHT22;34318;45.818;15.964;2022-07-12T04:17:43;22.60;62.90
43997;DHT22;34318;45.818;15.964;2022-07-12T04:20:11;22.60;63.30
43997;DHT22;34318;45.818;15.964;2022-07-12T04:22:39;22.60;63.30
43997;DHT22;34318;45.818;15.964;2022-07-12T04:25:07;22.60;63.30
43997;DHT22;34318;45.818;15.964;2022-07-12T04:27:34;22.50;63.70
43997;DHT22;34318;45.818;15.964;2022-07-12T04:30:01;22.50;64.10
43997;DHT22;34318;45.818;15.964;2022-07-12T04:32:30;22.50;64.70
43997;DHT22;34318;45.818;15.964;2022-07-12T04:34:58;22.50;64.30
43997;DHT22;34318;45.818;15.964;2022-07-12T04:37:25;22.60;64.60
43997;DHT22;34318;45.818;15.964;2022-07-12T04:39:54;22.60;64.70
43997;DHT22;34318;45.818;15.964;2022-07-12T04:42:21;22.60;64.80
43997;DHT22;34318;45.818;15.964;2022-07-12T04:44:47;22.60;64.80
43997;DHT22;34318;45.818;15.964;2022-07-12T04:47:14;22.60;64.50
43997;DHT22;34318;45.818;15.964;2022-07-12T04:49:41;22.60;65.70
43997;DHT22;34318;45.818;15.964;2022-07-12T04:52:08;22.60;66.00
43997;DHT22;34318;45.818;15.964;2022-07-12T04:54:35;22.50;66.00
43997;DHT22;34318;45.818;15.964;2022-07-12T04:57:02;22.50;66.20
43997;DHT22;34318;45.818;15.964;2022-07-12T04:59:29;22.60;65.80
43997;DHT22;34318;45.818;15.964;2022-07-12T05:01:55;22.60;66.30
43997;DHT22;34318;45.818;15.964;2022-07-12T05:04:22;22.60;66.20
43997;DHT22;34318;45.818;15.964;2022-07-12T05:06:49;22.70;65.50
43997;DHT22;34318;45.818;15.964;2022-07-12T05:09:16;22.70;66.10
43997;DHT22;34318;45.818;15.964;2022-07-12T05:11:43;22.70;66.30
43997;DHT22;34318;45.818;15.964;2022-07-12T05:14:10;22.70;65.60
43997;DHT22;34318;45.818;15.964;2022-07-12T05:16:37;22.70;65.80
43997;DHT22;34318;45.818;15.964;2022-07-12T05:19:04;22.70;65.80
43997;DHT22;34318;45.818;15.964;2022-07-12T05:21:31;22.80;65.80
43997;DHT22;34318;45.818;15.964;2022-07-12T05:24:02;22.80;65.60
43997;DHT22;34318;45.818;15.964;2022-07-12T05:26:29;22.80;65.50
43997;DHT22;34318;45.818;15.964;2022-07-12T05:28:57;22.80;65.30
43997;DHT22;34318;45.818;15.964;2022-07-12T05:31:24;22.80;65.50
43997;DHT22;34318;45.818;15.964;2022-07-12T05:33:51;22.80;65.40
43997;DHT22;34318;45.818;15.964;2022-07-12T05:36:18;22.90;65.50
43997;DHT22;34318;45.818;15.964;2022-07-12T05:38:45;22.90;65.50
43997;DHT22;34318;45.818;15.964;2022-07-12T05:41:12;22.80;65.40
43997;DHT22;34318;45.818;15.964;2022-07-12T05:43:39;22.90;65.60
43997;DHT22;34318;45.818;15.964;2022-07-12T05:46:06;22.90;65.60
43997;DHT22;34318;45.818;15.964;2022-07-12T05:48:33;22.90;65.50
43997;DHT22;34318;45.818;15.964;2022-07-12T05:51:00;22.90;65.70
43997;DHT22;34318;45.818;15.964;2022-07-12T05:53:47;23.00;65.30
43997;DHT22;34318;45.818;15.964;2022-07-12T05:56:14;23.00;65.40
43997;DHT22;34318;45.818;15.964;2022-07-12T05:58:41;23.00;65.70
43997;DHT22;34318;45.818;15.964;2022-07-12T06:01:08;23.00;65.50
43997;DHT22;34318;45.818;15.964;2022-07-12T06:03:35;23.00;64.30
43997;DHT22;34318;45.818;15.964;2022-07-12T06:06:02;23.10;64.30
43997;DHT22;34318;45.818;15.964;2022-07-12T06:08:29;23.10;63.90
43997;DHT22;34318;45.818;15.964;2022-07-12T06:10:57;23.10;64.00
43997;DHT22;34318;45.818;15.964;2022-07-12T06:13:23;23.10;63.70
43997;DHT22;34318;45.818;15.964;2022-07-12T06:15:51;23.10;63.60
43997;DHT22;34318;45.818;15.964;2022-07-12T06:18:18;23.20;63.60
43997;DHT22;34318;45.818;15.964;2022-07-12T06:20:44;23.20;63.40
43997;DHT22;34318;45.818;15.964;2022-07-12T06:23:11;23.20;63.40
43997;DHT22;34318;45.818;15.964;2022-07-12T06:25:39;23.20;64.50
43997;DHT22;34318;45.818;15.964;2022-07-12T06:28:10;23.20;65.10
43997;DHT22;34318;45.818;15.964;2022-07-12T06:30:37;23.20;64.90
43997;DHT22;34318;45.818;15.964;2022-07-12T06:33:04;23.20;65.90
43997;DHT22;34318;45.818;15.964;2022-07-12T06:35:30;23.20;64.80
43997;DHT22;34318;45.818;15.964;2022-07-12T06:37:57;23.20;65.50
43997;DHT22;34318;45.818;15.964;2022-07-12T06:40:24;23.30;64.30
43997;DHT22;34318;45.818;15.964;2022-07-12T06:42:52;23.40;64.60
43997;DHT22;34318;45.818;15.964;2022-07-12T06:45:20;23.40;64.40
43997;DHT22;34318;45.818;15.964;2022-07-12T06:47:47;23.40;64.50
43997;DHT22;34318;45.818;15.964;2022-07-12T06:50:13;23.40;64.50
43997;DHT22;34318;45.818;15.964;2022-07-12T06:52:40;23.40;64.10
43997;DHT22;34318;45.818;15.964;2022-07-12T06:55:08;23.40;64.90
43997;DHT22;34318;45.818;15.964;2022-07-12T06:57:35;23.50;64.70
43997;DHT22;34318;45.818;15.964;2022-07-12T07:00:04;23.40;64.30
43997;DHT22;34318;45.818;15.964;2022-07-12T07:02:32;23.50;64.30
43997;DHT22;34318;45.818;15.964;2022-07-12T07:04:59;23.50;64.30
43997;DHT22;34318;45.818;15.964;2022-07-12T07:07:26;23.60;64.20
43997;DHT22;34318;45.818;15.964;2022-07-12T07:09:53;23.60;63.80
43997;DHT22;34318;45.818;15.964;2022-07-12T07:12:19;23.60;63.40
43997;DHT22;34318;45.818;15.964;2022-07-12T07:14:47;23.60;63.10
43997;DHT22;34318;45.818;15.964;2022-07-12T07:17:15;23.60;63.10
43997;DHT22;34318;45.818;15.964;2022-07-12T07:19:44;23.70;62.20
43997;DHT22;34318;45.818;15.964;2022-07-12T07:22:12;23.80;62.10
43997;DHT22;34318;45.818;15.964;2022-07-12T07:24:40;23.80;62.00
43997;DHT22;34318;45.818;15.964;2022-07-12T07:27:07;23.80;62.50
43997;DHT22;34318;45.818;15.964;2022-07-12T07:29:34;23.90;62.40
43997;DHT22;34318;45.818;15.964;2022-07-12T07:32:27;24.00;62.30
43997;DHT22;34318;45.818;15.964;2022-07-12T07:34:54;24.00;61.70
43997;DHT22;34318;45.818;15.964;2022-07-12T07:37:21;23.90;61.40
43997;DHT22;34318;45.818;15.964;2022-07-12T07:39:52;23.90;60.80
43997;DHT22;34318;45.818;15.964;2022-07-12T07:42:19;24.00;60.50
43997;DHT22;34318;45.818;15.964;2022-07-12T07:44:45;24.00;60.20
43997;DHT22;34318;45.818;15.964;2022-07-12T07:47:43;24.10;59.30
43997;DHT22;34318;45.818;15.964;2022-07-12T07:50:30;24.20;59.20
43997;DHT22;34318;45.818;15.964;2022-07-12T07:52:57;24.20;58.80
43997;DHT22;34318;45.818;15.964;2022-07-12T07:55:23;24.20;58.70
43997;DHT22;34318;45.818;15.964;2022-07-12T07:57:50;24.30;58.20
43997;DHT22;34318;45.818;15.964;2022-07-12T08:00:18;24.30;57.10
43997;DHT22;34318;45.818;15.964;2022-07-12T08:02:45;24.30;56.70
43997;DHT22;34318;45.818;15.964;2022-07-12T08:05:12;24.30;56.40
43997;DHT22;34318;45.818;15.964;2022-07-12T08:07:39;24.30;55.90
43997;DHT22;34318;45.818;15.964;2022-07-12T08:10:21;24.30;55.50
43997;DHT22;34318;45.818;15.964;2022-07-12T08:12:48;24.40;55.40
43997;DHT22;34318;45.818;15.964;2022-07-12T08:15:15;24.40;55.50
43997;DHT22;34318;45.818;15.964;2022-07-12T08:17:42;24.40;55.30
43997;DHT22;34318;45.818;15.964;2022-07-12T08:20:18;24.40;54.40
43997;DHT22;34318;45.818;15.964;2022-07-12T08:23:05;24.50;54.90
43997;DHT22;34318;45.818;15.964;2022-07-12T08:25:32;24.50;55.10
43997;DHT22;34318;45.818;15.964;2022-07-12T08:27:59;24.50;55.50
43997;DHT22;34318;45.818;15.964;2022-07-12T08:30:26;24.60;55.00
43997;DHT22;34318;45.818;15.964;2022-07-12T08:32:53;24.60;54.60
43997;DHT22;34318;45.818;15.964;2022-07-12T08:35:21;24.50;54.40
43997;DHT22;34318;45.818;15.964;2022-07-12T08:37:48;24.50;54.30
43997;DHT22;34318;45.818;15.964;2022-07-12T08:40:15;24.60;54.90
43997;DHT22;34318;45.818;15.964;2022-07-12T08:42:43;24.60;55.00
43997;DHT22;34318;45.818;15.964;2022-07-12T08:45:10;24.60;54.80
43997;DHT22;34318;45.818;15.964;2022-07-12T08:47:37;24.60;54.70
43997;DHT22;34318;45.818;15.964;2022-07-12T08:50:18;24.70;54.40
43997;DHT22;34318;45.818;15.964;2022-07-12T08:52:47;24.60;53.90
43997;DHT22;34318;45.818;15.964;2022-07-12T08:57:45;24.70;53.80
43997;DHT22;34318;45.818;15.964;2022-07-12T09:00:12;24.60;54.10
43997;DHT22;34318;45.818;15.964;2022-07-12T09:05:22;24.70;53.60
43997;DHT22;34318;45.818;15.964;2022-07-12T09:07:49;24.70;54.10
43997;DHT22;34318;45.818;15.964;2022-07-12T09:10:17;24.70;54.20
43997;DHT22;34318;45.818;15.964;2022-07-12T09:12:45;24.70;54.20
43997;DHT22;34318;45.818;15.964;2022-07-12T09:15:19;24.70;54.30
43997;DHT22;34318;45.818;15.964;2022-07-12T09:20:32;24.60;53.70
43997;DHT22;34318;45.818;15.964;2022-07-12T09:23:05;24.70;54.00
43997;DHT22;34318;45.818;15.964;2022-07-12T09:25:32;24.60;53.30
43997;DHT22;34318;45.818;15.964;2022-07-12T09:28:06;24.70;53.30
43997;DHT22;34318;45.818;15.964;2022-07-12T09:30:35;24.70;53.50
43997;DHT22;34318;45.818;15.964;2022-07-12T09:33:06;24.80;53.40
43997;DHT22;34318;45.818;15.964;2022-07-12T09:38:38;24.80;53.00
43997;DHT22;34318;45.818;15.964;2022-07-12T09:41:07;24.70;53.20
43997;DHT22;34318;45.818;15.964;2022-07-12T09:43:34;24.80;52.80
43997;DHT22;34318;45.818;15.964;2022-07-12T09:46:02;24.80;53.20
43997;DHT22;34318;45.818;15.964;2022-07-12T09:48:29;24.80;53.20
43997;DHT22;34318;45.818;15.964;2022-07-12T09:50:57;24.80;53.00
43997;DHT22;34318;45.818;15.964;2022-07-12T09:53:32;24.80;53.00
43997;DHT22;34318;45.818;15.964;2022-07-12T09:56:05;24.80;53.60
43997;DHT22;34318;45.818;15.964;2022-07-12T09:58:54;24.90;53.20
43997;DHT22;34318;45.818;15.964;2022-07-12T10:01:22;24.80;53.60
43997;DHT22;34318;45.818;15.964;2022-07-12T10:03:51;24.70;53.90
43997;DHT22;34318;45.818;15.964;2022-07-12T10:06:29;24.70;54.30
43997;DHT22;34318;45.818;15.964;2022-07-12T10:09:02;24.70;53.70
43997;DHT22;34318;45.818;15.964;2022-07-12T10:11:30;24.70;53.30
43997;DHT22;34318;45.818;15.964;2022-07-12T10:14:18;24.70;53.00
43997;DHT22;34318;45.818;15.964;2022-07-12T10:16:47;24.70;53.00
43997;DHT22;34318;45.818;15.964;2022-07-12T10:19:23;24.70;52.80
43997;DHT22;34318;45.818;15.964;2022-07-12T10:21:52;24.70;53.00
43997;DHT22;34318;45.818;15.964;2022-07-12T10:29:42;24.70;53.00
43997;DHT22;34318;45.818;15.964;2022-07-12T10:32:33;24.70;52.80
43997;DHT22;34318;45.818;15.964;2022-07-12T10:38:13;24.70;52.60
43997;DHT22;34318;45.818;15.964;2022-07-12T10:40:41;24.80;52.50
43997;DHT22;34318;45.818;15.964;2022-07-12T10:45:42;24.70;52.70
43997;DHT22;34318;45.818;15.964;2022-07-12T10:48:21;24.70;52.90
43997;DHT22;34318;45.818;15.964;2022-07-12T10:53:34;24.70;53.00
43997;DHT22;34318;45.818;15.964;2022-07-12T10:58:38;24.70;53.40
43997;DHT22;34318;45.818;15.964;2022-07-12T11:01:08;24.70;53.10
43997;DHT22;34318;45.818;15.964;2022-07-12T11:03:50;24.70;53.10
43997;DHT22;34318;45.818;15.964;2022-07-12T11:06:20;24.60;53.80
43997;DHT22;34318;45.818;15.964;2022-07-12T11:08:55;24.60;53.20
43997;DHT22;34318;45.818;15.964;2022-07-12T11:11:25;24.70;53.00
43997;DHT22;34318;45.818;15.964;2022-07-12T11:13:52;24.70;52.70
43997;DHT22;34318;45.818;15.964;2022-07-12T11:16:19;24.70;52.70
43997;DHT22;34318;45.818;15.964;2022-07-12T11:18:47;24.70;52.80
43997;DHT22;34318;45.818;15.964;2022-07-12T11:21:14;24.70;52.70
43997;DHT22;34318;45.818;15.964;2022-07-12T11:23:41;24.70;52.40
43997;DHT22;34318;45.818;15.964;2022-07-12T11:26:09;24.70;52.60
43997;DHT22;34318;45.818;15.964;2022-07-12T11:28:38;24.70;53.00
43997;DHT22;34318;45.818;15.964;2022-07-12T11:31:10;24.70;53.60
43997;DHT22;34318;45.818;15.964;2022-07-12T11:33:39;24.60;54.00
43997;DHT22;34318;45.818;15.964;2022-07-12T11:36:08;24.70;53.70
43997;DHT22;34318;45.818;15.964;2022-07-12T11:38:39;24.60;54.00
43997;DHT22;34318;45.818;15.964;2022-07-12T11:41:11;24.60;54.30
43997;DHT22;34318;45.818;15.964;2022-07-12T11:43:39;24.60;53.80
43997;DHT22;34318;45.818;15.964;2022-07-12T11:46:07;24.70;53.40
43997;DHT22;34318;45.818;15.964;2022-07-12T11:48:36;24.70;52.80
43997;DHT22;34318;45.818;15.964;2022-07-12T11:51:05;24.70;52.60
43997;DHT22;34318;45.818;15.964;2022-07-12T11:53:34;24.70;52.60
43997;DHT22;34318;45.818;15.964;2022-07-12T11:56:03;24.60;52.70
43997;DHT22;34318;45.818;15.964;2022-07-12T11:58:30;24.60;52.20
43997;DHT22;34318;45.818;15.964;2022-07-12T12:00:59;24.70;52.80
43997;DHT22;34318;45.818;15.964;2022-07-12T12:03:26;24.70;52.80
43997;DHT22;34318;45.818;15.964;2022-07-12T12:05:55;24.60;52.30
43997;DHT22;34318;45.818;15.964;2022-07-12T12:08:23;24.70;52.60
43997;DHT22;34318;45.818;15.964;2022-07-12T12:10:56;24.70;52.40
43997;DHT22;34318;45.818;15.964;2022-07-12T12:13:26;24.70;52.50
43997;DHT22;34318;45.818;15.964;2022-07-12T12:16:01;24.70;52.80
43997;DHT22;34318;45.818;15.964;2022-07-12T12:18:34;24.70;53.20
43997;DHT22;34318;45.818;15.964;2022-07-12T12:21:07;24.70;53.30
43997;DHT22;34318;45.818;15.964;2022-07-12T12:23:35;24.70;53.50
43997;DHT22;34318;45.818;15.964;2022-07-12T12:28:47;24.70;53.70
43997;DHT22;34318;45.818;15.964;2022-07-12T12:31:15;24.70;53.80
43997;DHT22;34318;45.818;15.964;2022-07-12T12:33:46;24.60;53.70
43997;DHT22;34318;45.818;15.964;2022-07-12T12:36:18;24.70;53.90
43997;DHT22;34318;45.818;15.964;2022-07-12T12:38:45;24.60;53.80
43997;DHT22;34318;45.818;15.964;2022-07-12T12:41:13;24.70;53.90
43997;DHT22;34318;45.818;15.964;2022-07-12T12:43:41;24.60;53.90
43997;DHT22;34318;45.818;15.964;2022-07-12T12:46:08;24.60;53.90
43997;DHT22;34318;45.818;15.964;2022-07-12T12:48:36;24.70;53.90
43997;DHT22;34318;45.818;15.964;2022-07-12T12:51:08;24.70;53.80
43997;DHT22;34318;45.818;15.964;2022-07-12T12:53:36;24.60;53.80
43997;DHT22;34318;45.818;15.964;2022-07-12T12:56:16;24.70;53.90
43997;DHT22;34318;45.818;15.964;2022-07-12T12:58:43;24.60;54.20
43997;DHT22;34318;45.818;15.964;2022-07-12T13:01:10;24.50;54.40
43997;DHT22;34318;45.818;15.964;2022-07-12T13:03:37;24.60;54.40
43997;DHT22;34318;45.818;15.964;2022-07-12T13:06:04;24.50;54.40
43997;DHT22;34318;45.818;15.964;2022-07-12T13:08:32;24.50;54.60
43997;DHT22;34318;45.818;15.964;2022-07-12T13:10:59;24.50;54.60
43997;DHT22;34318;45.818;15.964;2022-07-12T13:13:44;24.50;54.80
43997;DHT22;34318;45.818;15.964;2022-07-12T13:16:11;24.40;56.60
43997;DHT22;34318;45.818;15.964;2022-07-12T13:18:38;24.40;58.50
43997;DHT22;34318;45.818;15.964;2022-07-12T13:21:07;24.40;58.00
43997;DHT22;34318;45.818;15.964;2022-07-12T13:23:34;24.40;57.80
43997;DHT22;34318;45.818;15.964;2022-07-12T13:26:01;24.40;58.30
43997;DHT22;34318;45.818;15.964;2022-07-12T13:28:28;24.50;58.70
43997;DHT22;34318;45.818;15.964;2022-07-12T13:30:56;24.50;58.80
43997;DHT22;34318;45.818;15.964;2022-07-12T13:33:23;24.50;59.00
43997;DHT22;34318;45.818;15.964;2022-07-12T13:35:50;24.50;59.10
43997;DHT22;34318;45.818;15.964;2022-07-12T13:38:16;24.50;59.50
43997;DHT22;34318;45.818;15.964;2022-07-12T13:40:43;24.50;59.50
43997;DHT22;34318;45.818;15.964;2022-07-12T13:43:10;24.50;59.40
43997;DHT22;34318;45.818;15.964;2022-07-12T13:45:37;24.60;59.40
43997;DHT22;34318;45.818;15.964;2022-07-12T13:48:05;24.60;60.00
43997;DHT22;34318;45.818;15.964;2022-07-12T13:50:32;24.60;61.60
43997;DHT22;34318;45.818;15.964;2022-07-12T13:52:59;24.60;61.40
43997;DHT22;34318;45.818;15.964;2022-07-12T13:55:27;24.50;61.20
43997;DHT22;34318;45.818;15.964;2022-07-12T13:57:54;24.60;61.20
43997;DHT22;34318;45.818;15.964;2022-07-12T14:00:21;24.60;61.90
43997;DHT22;34318;45.818;15.964;2022-07-12T14:02:49;24.60;61.50
43997;DHT22;34318;45.818;15.964;2022-07-12T14:05:24;24.70;62.10
43997;DHT22;34318;45.818;15.964;2022-07-12T14:07:51;24.60;62.00
43997;DHT22;34318;45.818;15.964;2022-07-12T14:10:18;24.70;61.60
43997;DHT22;34318;45.818;15.964;2022-07-12T14:12:45;24.70;61.80
43997;DHT22;34318;45.818;15.964;2022-07-12T14:15:12;24.60;62.30
43997;DHT22;34318;45.818;15.964;2022-07-12T14:17:41;24.60;62.20
43997;DHT22;34318;45.818;15.964;2022-07-12T14:20:12;24.60;62.10
43997;DHT22;34318;45.818;15.964;2022-07-12T14:22:40;24.60;61.90
43997;DHT22;34318;45.818;15.964;2022-07-12T14:25:08;24.60;62.00
43997;DHT22;34318;45.818;15.964;2022-07-12T14:27:36;24.70;61.40
43997;DHT22;34318;45.818;15.964;2022-07-12T14:30:04;24.70;61.80
43997;DHT22;34318;45.818;15.964;2022-07-12T14:32:33;24.60;62.00
43997;DHT22;34318;45.818;15.964;2022-07-12T14:35:02;24.60;62.00
43997;DHT22;34318;45.818;15.964;2022-07-12T14:37:29;24.60;61.60
43997;DHT22;34318;45.818;15.964;2022-07-12T14:39:56;24.60;61.70
43997;DHT22;34318;45.818;15.964;2022-07-12T14:42:24;24.60;61.60
43997;DHT22;34318;45.818;15.964;2022-07-12T14:44:50;24.70;61.20
43997;DHT22;34318;45.818;15.964;2022-07-12T14:47:22;24.60;61.30
43997;DHT22;34318;45.818;15.964;2022-07-12T14:49:50;24.70;60.90
43997;DHT22;34318;45.818;15.964;2022-07-12T14:52:17;24.60;60.40
43997;DHT22;34318;45.818;15.964;2022-07-12T14:54:44;24.70;60.70
43997;DHT22;34318;45.818;15.964;2022-07-12T14:57:11;24.70;60.40
43997;DHT22;34318;45.818;15.964;2022-07-12T14:59:40;24.70;60.20
43997;DHT22;34318;45.818;15.964;2022-07-12T15:02:07;24.70;60.40
43997;DHT22;34318;45.818;15.964;2022-07-12T15:04:34;24.70;60.10
43997;DHT22;34318;45.818;15.964;2022-07-12T15:07:01;24.70;60.00
43997;DHT22;34318;45.818;15.964;2022-07-12T15:09:28;24.70;59.50
43997;DHT22;34318;45.818;15.964;2022-07-12T15:11:55;24.70;59.60
43997;DHT22;34318;45.818;15.964;2022-07-12T15:14:22;24.60;59.80
43997;DHT22;34318;45.818;15.964;2022-07-12T15:16:50;24.60;59.80
43997;DHT22;34318;45.818;15.964;2022-07-12T15:19:16;24.60;59.90
43997;DHT22;34318;45.818;15.964;2022-07-12T15:21:44;24.60;60.00
43997;DHT22;34318;45.818;15.964;2022-07-12T15:24:11;24.60;59.90
43997;DHT22;34318;45.818;15.964;2022-07-12T15:26:38;24.60;60.00
43997;DHT22;34318;45.818;15.964;2022-07-12T15:29:05;24.60;59.80
43997;DHT22;34318;45.818;15.964;2022-07-12T15:31:32;24.60;60.00
43997;DHT22;34318;45.818;15.964;2022-07-12T15:34:00;24.70;59.50
43997;DHT22;34318;45.818;15.964;2022-07-12T15:36:27;24.70;59.20
43997;DHT22;34318;45.818;15.964;2022-07-12T15:38:54;24.70;58.60
43997;DHT22;34318;45.818;15.964;2022-07-12T15:41:21;24.70;58.80
43997;DHT22;34318;45.818;15.964;2022-07-12T15:43:48;24.80;58.60
43997;DHT22;34318;45.818;15.964;2022-07-12T15:46:15;24.70;58.50
43997;DHT22;34318;45.818;15.964;2022-07-12T15:48:42;24.70;58.60
43997;DHT22;34318;45.818;15.964;2022-07-12T15:51:09;24.70;58.60
43997;DHT22;34318;45.818;15.964;2022-07-12T15:53:37;24.70;58.90